Time;durP1;ratioP1;P1;durP2;ratioP2;P2;SDS_P1;SDS_P2;PMS_P1;PMS_P2;Temp;Humidity;BMP_temperature;BMP_pressure;BME280_temperature;BME280_humidity;BME280_pressure;Samples;Min_cycle;Max_cycle;Signal;HPM_P1;HPM_P2
2023/10/13 00:02:01;;;;;;;;;8.75;5.75;;;;;21.28;100.00;100865.53;5029177;28;45402;-73
2023/10/13 00:04:27;;;;;;;;;5.00;5.00;;;;;21.29;100.00;100865.25;5022152;28;45880;-73
2023/10/13 00:06:53;;;;;;;;;7.25;5.00;;;;;21.30;100.00;100872.50;5018624;28;45705;-74
2023/10/13 00:09:24;;;;;;;;;3.67;3.33;;;;;21.32;100.00;100858.28;5029544;28;46233;-71
2023/10/13 00:11:49;;;;;;;;;7.00;6.00;;;;;21.31;100.00;100867.75;5017506;28;45442;-71
2023/10/13 00:14:18;;;;;;;;;5.00;5.00;;;;;21.30;100.00;100861.34;5021862;28;45663;-73
2023/10/13 00:17:00;;;;;;;;;7.00;5.00;;;;;21.28;100.00;100857.97;5019626;28;45519;-73
2023/10/13 00:19:28;;;;;;;;;5.00;5.00;;;;;21.26;100.00;100853.81;5029053;28;46307;-73
2023/10/13 00:21:56;;;;;;;;;7.75;5.25;;;;;21.27;100.00;100855.47;5025488;28;45706;-72
2023/10/13 00:24:23;;;;;;;;;5.00;3.75;;;;;21.28;100.00;100846.81;5025909;28;45420;-73
2023/10/13 00:26:53;;;;;;;;;6.00;4.00;;;;;21.29;100.00;100848.50;5017606;28;45708;-73
2023/10/13 00:29:28;;;;;;;;;7.33;4.33;;;;;21.31;100.00;100848.22;5028337;28;47175;-71
2023/10/13 00:31:54;;;;;;;;;11.33;6.33;;;;;21.32;100.00;100849.91;5027868;28;45832;-74
2023/10/13 00:34:25;;;;;;;;;7.00;5.33;;;;;21.31;100.00;100851.84;5027259;28;45756;-73
2023/10/13 00:39:36;;;;;;;;;5.00;5.00;;;;;21.37;100.00;100855.47;5027252;28;45893;-72
2023/10/13 00:42:07;;;;;;;;;6.33;5.33;;;;;21.38;100.00;100853.50;5025179;28;45547;-73
2023/10/13 00:44:43;;;;;;;;;5.67;5.00;;;;;21.38;100.00;100845.16;5030397;28;45812;-71
2023/10/13 00:47:12;;;;;;;;;6.33;6.33;;;;;21.37;100.00;100844.31;5027432;28;45360;-71
2023/10/13 00:49:39;;;;;;;;;8.33;7.00;;;;;21.38;100.00;100839.56;5029040;28;46020;-73
2023/10/13 00:52:06;;;;;;;;;7.67;7.67;;;;;21.33;100.00;100832.91;5025970;28;45409;-71
2023/10/13 00:54:35;;;;;;;;;5.00;5.00;;;;;21.31;100.00;100823.94;5023748;28;45490;-72
2023/10/13 00:57:04;;;;;;;;;5.00;4.00;;;;;21.33;100.00;100826.47;5027945;28;45976;-72
2023/10/13 00:59:41;;;;;;;;;6.33;6.33;;;;;21.30;100.00;100822.28;5029866;28;46928;-73
2023/10/13 01:02:55;;;;;;;;;8.00;5.67;;;;;21.30;100.00;100822.28;5029653;28;45404;-72
2023/10/13 01:04:54;;;;;;;;;10.33;8.33;;;;;21.27;100.00;100822.84;5021875;28;45538;-72
2023/10/13 01:07:22;;;;;;;;;8.67;6.33;;;;;21.23;100.00;100809.72;5029695;28;46474;-72
2023/10/13 01:09:47;;;;;;;;;6.75;4.25;;;;;21.21;100.00;100806.38;5023562;28;45625;-73
2023/10/13 01:12:14;;;;;;;;;6.25;6.25;;;;;21.21;100.00;100806.38;5027928;28;45848;-71
2023/10/13 01:14:40;;;;;;;;;6.00;6.00;;;;;21.07;100.00;100789.38;5030480;28;45509;-72
2023/10/13 01:17:05;;;;;;;;;8.33;5.00;;;;;21.10;100.00;100788.81;5029151;28;45510;-72
2023/10/13 01:19:38;;;;;;;;;7.00;6.00;;;;;21.15;100.00;100805.53;5027737;28;45522;-72
2023/10/13 01:22:06;;;;;;;;;12.00;8.33;;;;;21.15;100.00;100800.81;5029022;28;45693;-73
2023/10/13 01:24:34;;;;;;;;;7.67;7.67;;;;;21.17;100.00;100801.38;5024582;28;45459;-72
2023/10/13 01:27:08;;;;;;;;;10.00;6.33;;;;;21.19;100.00;100803.88;5031731;28;45844;-72
2023/10/13 01:29:34;;;;;;;;;8.67;6.33;;;;;21.20;100.00;100799.13;5033067;28;45745;-72
2023/10/13 01:31:59;;;;;;;;;7.00;5.67;;;;;21.21;100.00;100792.44;5030993;28;45761;-73
2023/10/13 01:34:24;;;;;;;;;9.33;9.33;;;;;21.21;100.00;100787.69;5035883;28;45689;-73
2023/10/13 01:36:53;;;;;;;;;8.67;7.33;;;;;21.21;100.00;100789.66;5033023;28;45552;-73
2023/10/13 01:39:20;;;;;;;;;9.67;6.33;;;;;21.22;100.00;100781.00;5030244;28;46251;-72
2023/10/13 01:41:46;;;;;;;;;7.00;6.33;;;;;21.21;100.00;100790.47;5035398;28;45382;-71
2023/10/13 01:44:11;;;;;;;;;10.00;9.33;;;;;21.17;100.00;100779.06;5043745;28;45688;-72
2023/10/13 01:46:38;;;;;;;;;10.33;6.00;;;;;21.16;100.00;100779.34;5027369;28;45327;-73
2023/10/13 01:49:03;;;;;;;;;11.33;8.67;;;;;21.13;100.00;100772.34;5038638;28;46514;-72
2023/10/13 01:51:28;;;;;;;;;7.33;4.67;;;;;21.09;100.00;100771.25;5031405;28;45310;-72
2023/10/13 01:53:56;;;;;;;;;5.67;4.67;;;;;21.07;100.00;100767.06;5034241;28;45613;-72
2023/10/13 01:56:29;;;;;;;;;8.00;5.67;;;;;20.99;100.00;100751.75;5026648;28;45699;-72
2023/10/13 01:58:55;;;;;;;;;8.00;7.00;;;;;21.00;100.00;100758.97;5027422;28;46258;-71
2023/10/13 02:01:26;;;;;;;;;7.67;7.33;;;;;20.94;100.00;100752.56;5024913;28;45714;-72
2023/10/13 02:04:01;;;;;;;;;9.67;9.67;;;;;20.93;100.00;100752.84;5030906;28;45439;-73
2023/10/13 02:06:32;;;;;;;;;10.33;7.00;;;;;20.91;100.00;100753.13;5030481;28;45803;-72
2023/10/13 02:09:17;;;;;;;;;11.33;8.33;;;;;20.85;100.00;100737.50;5046915;28;47136;-72
2023/10/13 02:11:47;;;;;;;;;6.00;5.00;;;;;20.85;100.00;100736.66;5029323;28;45633;-73
2023/10/13 02:14:17;;;;;;;;;13.33;9.33;;;;;20.83;100.00;100736.94;5030349;28;45373;-71
2023/10/13 02:16:42;;;;;;;;;11.67;10.33;;;;;20.80;100.00;100723.56;5028101;28;46207;-72
2023/10/13 02:19:08;;;;;;;;;8.67;7.00;;;;;20.78;100.00;100714.66;5031063;28;47407;-73
2023/10/13 02:21:39;;;;;;;;;10.67;7.33;;;;;20.72;100.00;100708.25;5027141;28;45889;-73
2023/10/13 02:24:12;;;;;;;;;11.33;7.67;;;;;20.69;100.00;100707.94;5030130;28;45796;-72
2023/10/13 02:26:41;;;;;;;;;8.00;6.00;;;;;20.64;100.00;100706.81;5048817;28;47185;-72
2023/10/13 02:29:17;;;;;;;;;10.00;7.33;;;;;20.63;100.00;100702.34;5026201;28;45834;-72
2023/10/13 02:31:54;;;;;;;;;12.00;7.33;;;;;20.60;100.00;100680.63;5032673;28;45735;-73
2023/10/13 02:34:19;;;;;;;;;8.67;8.00;;;;;20.57;100.00;100680.31;5032659;28;45968;-72
2023/10/13 02:36:51;;;;;;;;;10.67;9.33;;;;;20.51;100.00;100684.22;5030382;28;45789;-71
2023/10/13 02:39:17;;;;;;;;;16.33;9.00;;;;;20.45;100.00;100695.38;5030933;28;46032;-73
2023/10/13 02:41:47;;;;;;;;;11.00;9.00;;;;;20.43;100.00;100702.31;5031635;28;45526;-72
2023/10/13 02:44:26;;;;;;;;;12.33;9.67;;;;;20.43;100.00;100693.97;5029773;28;45660;-72
2023/10/13 02:46:55;;;;;;;;;15.00;10.00;;;;;20.43;100.00;100708.75;5033646;28;46424;-72
2023/10/13 02:49:20;;;;;;;;;6.00;5.00;;;;;20.41;100.00;100696.19;5031558;28;45817;-72
2023/10/13 02:51:45;;;;;;;;;14.00;10.33;;;;;20.37;100.00;100692.28;5027358;28;45527;-72
2023/10/13 02:54:20;;;;;;;;;12.00;11.00;;;;;20.23;100.00;100675.28;5027430;28;45841;-72
2023/10/13 02:57:05;;;;;;;;;9.67;9.00;;;;;20.29;100.00;100697.28;5032439;28;45529;-72
2023/10/13 02:59:40;;;;;;;;;8.33;7.67;;;;;20.27;100.00;100704.25;5029274;28;45696;-73
2023/10/13 03:02:29;;;;;;;;;12.67;10.33;;;;;20.23;100.00;100691.97;5040682;28;45755;-72
2023/10/13 03:05:09;;;;;;;;;12.00;7.00;;;;;20.17;100.00;100680.00;5032053;28;45727;-73
2023/10/13 03:07:36;;;;;;;;;10.33;7.33;;;;;20.11;100.00;100673.56;5031249;28;45449;-73
2023/10/13 03:10:09;;;;;;;;;12.33;11.00;;;;;20.10;100.00;100673.84;5029339;28;46193;-72
2023/10/13 03:12:36;;;;;;;;;12.00;10.67;;;;;20.05;100.00;100668.28;5027942;28;45941;-73
2023/10/13 03:15:17;;;;;;;;;10.33;8.33;;;;;20.05;100.00;100674.66;5031897;28;45616;-71
2023/10/13 03:17:43;;;;;;;;;9.67;8.67;;;;;20.01;100.00;100656.84;5026064;28;45717;-72
2023/10/13 03:20:22;;;;;;;;;9.67;9.33;;;;;20.00;100.00;100657.09;5047439;28;45463;-72
2023/10/13 03:22:52;;;;;;;;;9.00;7.00;;;;;19.98;100.00;100642.66;5037172;28;45432;-71
2023/10/13 03:25:24;;;;;;;;;15.67;12.33;;;;;19.95;100.00;100648.75;5029588;28;45793;-74
2023/10/13 03:30:16;;;;;;;;;16.67;12.33;;;;;19.87;100.00;100630.66;5027582;28;45464;-73
2023/10/13 03:33:07;;;;;;;;;14.00;9.67;;;;;19.77;100.00;100606.38;5030711;28;45536;-72
2023/10/13 03:35:43;;;;;;;;;13.00;9.67;;;;;19.87;100.00;100623.13;5037446;28;45483;-72
2023/10/13 03:38:18;;;;;;;;;12.67;9.67;;;;;19.83;100.00;100619.22;5035259;28;46325;-73
2023/10/13 03:40:48;;;;;;;;;15.00;10.00;;;;;19.82;100.00;100612.00;5032814;28;45917;-72
2023/10/13 03:43:16;;;;;;;;;9.67;9.67;;;;;19.80;100.00;100614.19;5024888;28;45801;-73
2023/10/13 03:45:46;;;;;;;;;15.00;10.67;;;;;19.73;100.00;100608.88;5032189;28;45375;-74
2023/10/13 03:51:03;;;;;;;;;13.00;11.00;;;;;19.81;100.00;100590.84;5024617;28;46579;-72
2023/10/13 03:53:33;;;;;;;;;8.00;7.33;;;;;19.78;100.00;100588.59;5028824;28;45473;-71
2023/10/13 03:56:11;;;;;;;;;12.33;10.33;;;;;19.86;100.00;100592.78;5028003;28;47275;-73
2023/10/13 03:58:48;;;;;;;;;13.33;9.33;;;;;19.88;100.00;100594.19;5027098;28;45556;-73
2023/10/13 04:01:17;;;;;;;;;13.33;10.33;;;;;19.91;100.00;100602.00;5030175;28;46197;-72
2023/10/13 04:04:03;;;;;;;;;13.33;8.67;;;;;19.92;100.00;100597.25;5028054;28;46136;-72
2023/10/13 04:17:27;;;;;;;;;9.67;9.67;;;;;20.06;100.00;100575.28;5026329;28;45757;-71
2023/10/13 04:29:09;;;;;;;;;9.00;9.00;;;;;20.09;100.00;100535.78;5031073;28;45598;-73
2023/10/13 04:36:36;;;;;;;;;11.67;10.67;;;;;20.20;100.00;100537.44;5027255;28;45535;-72
2023/10/13 04:41:43;;;;;;;;;15.67;9.67;;;;;20.09;100.00;100511.53;5028034;28;45761;-71
2023/10/13 04:45:00;;;;;;;;;13.00;10.33;;;;;20.16;100.00;100510.41;5024725;28;45987;-71
2023/10/13 04:49:49;;;;;;;;;10.33;9.00;;;;;20.17;100.00;100498.19;5029107;28;45895;-72
2023/10/13 04:52:38;;;;;;;;;10.67;9.33;;;;;20.26;100.00;100508.47;5024958;28;45415;-71
2023/10/13 04:55:16;;;;;;;;;16.67;12.67;;;;;20.27;100.00;100504.56;5031295;28;45791;-71
2023/10/13 04:57:50;;;;;;;;;10.67;8.67;;;;;20.31;100.00;100509.56;5031891;28;45709;-72
2023/10/13 05:05:53;;;;;;;;;12.00;10.67;;;;;20.42;100.00;100472.25;5030199;28;45878;-72
2023/10/13 06:30:00;;;;;;;;;15.00;14.67;;;;;20.61;100.00;100472.47;5030822;28;45960;-75
2023/10/13 06:32:26;;;;;;;;;14.00;12.00;;;;;20.62;100.00;100466.59;5023138;28;46524;-74
2023/10/13 06:35:05;;;;;;;;;18.00;14.33;;;;;20.63;100.00;100470.25;5031903;28;45746;-76
2023/10/13 06:37:31;;;;;;;;;18.33;16.67;;;;;20.68;100.00;100475.00;5035705;28;45759;-72
2023/10/13 06:40:22;;;;;;;;;16.00;13.00;;;;;20.71;100.00;100477.22;5025075;28;46455;-72
2023/10/13 06:42:48;;;;;;;;;12.33;12.33;;;;;20.72;100.00;100467.72;5014116;28;46508;-72
2023/10/13 06:45:16;;;;;;;;;15.67;14.67;;;;;20.79;100.00;100471.03;5032148;28;45798;-71
2023/10/13 06:47:45;;;;;;;;;16.33;16.33;;;;;20.83;100.00;100488.03;5031686;28;45728;-74
2023/10/13 06:50:15;;;;;;;;;12.67;10.67;;;;;20.84;100.00;100470.19;5030941;28;45725;-71
2023/10/13 06:52:47;;;;;;;;;18.00;13.33;;;;;20.85;100.00;100472.69;5043092;28;46156;-73
2023/10/13 06:55:17;;;;;;;;;15.33;14.00;;;;;20.88;100.00;100485.22;5026253;28;45726;-73
2023/10/13 06:57:44;;;;;;;;;14.00;12.67;;;;;20.90;100.00;100489.41;5032662;28;45605;-72
2023/10/13 07:00:19;;;;;;;;;22.67;16.67;;;;;20.92;100.00;100483.53;5025763;28;46021;-73
2023/10/13 07:02:46;;;;;;;;;14.33;14.33;;;;;20.97;100.00;100489.09;5027654;28;45733;-73
2023/10/13 07:05:13;;;;;;;;;11.67;10.67;;;;;20.98;100.00;100493.56;5030021;28;45756;-74
2023/10/13 07:07:40;;;;;;;;;14.00;12.67;;;;;21.02;100.00;100502.16;5031973;28;46000;-73
2023/10/13 07:10:12;;;;;;;;;16.33;13.67;;;;;21.05;100.00;100499.66;5032158;28;45839;-74
2023/10/13 07:12:43;;;;;;;;;15.67;13.00;;;;;21.13;100.00;100496.25;5021053;28;46523;-73
2023/10/13 07:15:19;;;;;;;;;14.50;12.00;;;;;21.20;100.00;100493.19;5029569;28;45634;-76
2023/10/13 07:17:47;;;;;;;;;15.33;12.33;;;;;21.28;100.00;100498.16;5031401;28;45400;-74
2023/10/13 07:23:17;;;;;;;;;15.00;15.00;;;;;21.32;100.00;100476.09;4998051;28;45658;-74
2023/10/13 07:25:51;;;;;;;;;14.33;13.00;;;;;21.45;100.00;100483.00;5038094;28;45938;-74
2023/10/13 07:28:16;;;;;;;;;20.00;14.67;;;;;21.47;100.00;100477.97;5028962;28;45934;-74
2023/10/13 07:30:49;;;;;;;;;13.67;12.33;;;;;21.51;100.00;100477.13;5039727;28;45483;-74
2023/10/13 07:33:19;;;;;;;;;17.33;16.33;;;;;21.57;100.00;100483.53;5024194;28;45645;-74
2023/10/13 07:35:49;;;;;;;;;13.67;11.33;;;;;21.62;100.00;100482.66;5030151;28;45966;-74
2023/10/13 07:38:16;;;;;;;;;12.67;12.00;;;;;21.65;100.00;100482.91;5031057;28;45753;-74
2023/10/13 07:40:50;;;;;;;;;16.33;12.67;;;;;21.62;100.00;100472.31;5032676;28;45712;-74
2023/10/13 07:43:21;;;;;;;;;16.00;13.00;;;;;21.73;100.00;100489.81;5017768;28;48053;-75
2023/10/13 07:45:51;;;;;;;;;19.00;13.33;;;;;21.74;100.00;100485.91;5029117;28;45740;-73
2023/10/13 07:48:20;;;;;;;;;14.67;13.67;;;;;21.76;100.00;100480.84;5035099;28;45457;-74
2023/10/13 07:51:01;;;;;;;;;16.00;16.00;;;;;21.80;100.00;100490.31;5049273;28;45700;-76
2023/10/13 07:53:34;;;;;;;;;17.67;13.00;;;;;21.83;100.00;100483.34;5042261;28;45833;-75
2023/10/13 07:56:04;;;;;;;;;12.33;10.00;;;;;21.85;100.00;100481.06;5031817;28;45656;-76
2023/10/13 07:58:31;;;;;;;;;12.67;12.33;;;;;21.88;100.00;100488.03;5017666;28;45768;-74
2023/10/13 08:01:16;;;;;;;;;14.00;12.00;;;;;21.91;100.00;100479.09;5026635;28;45348;-77
2023/10/13 08:03:45;;;;;;;;;13.33;11.67;;;;;21.92;100.00;100475.16;5037169;28;45689;-73
2023/10/13 08:08:43;;;;;;;;;12.67;9.33;;;;;22.15;100.00;100479.16;5032087;28;45623;-75
2023/10/13 08:11:11;;;;;;;;;11.33;9.67;;;;;22.29;100.00;100480.13;5030379;28;46061;-76
2023/10/13 08:13:46;;;;;;;;;15.33;13.33;;;;;22.48;100.00;100482.22;5022806;28;45538;-74
2023/10/13 08:16:20;;;;;;;;;11.67;11.67;;;;;22.70;100.00;100474.13;5026985;28;45790;-74
2023/10/13 08:18:49;;;;;;;;;17.33;11.33;;;;;22.84;100.00;100479.00;5028294;28;45534;-74
2023/10/13 08:21:19;;;;;;;;;17.33;13.00;;;;;22.96;100.00;100482.22;5021691;28;45610;-76
2023/10/13 08:24:07;;;;;;;;;14.50;13.00;;;;;23.11;100.00;100466.41;5014666;28;45818;-74
2023/10/13 08:26:56;;;;;;;;;15.00;12.67;;;;;23.23;100.00;100464.84;5026941;28;45351;-76
2023/10/13 08:34:59;;;;;;;;;13.00;8.67;;;;;23.45;100.00;100457.81;5028594;28;45732;-75
2023/10/13 08:37:32;;;;;;;;;14.67;11.33;;;;;23.53;100.00;100445.09;5028927;28;45664;-75
2023/10/13 08:43:08;;;;;;;;;11.00;11.00;;;;;23.75;100.00;100447.25;5031033;28;45696;-74
2023/10/13 09:09:58;;;;;;;;;13.67;10.67;;;;;24.47;100.00;100430.00;5030596;28;45647;-75
2023/10/13 09:17:53;;;;;;;;;13.50;11.50;;;;;24.97;100.00;100417.25;5028205;28;46117;-76
2023/10/13 09:20:42;;;;;;;;;8.25;8.25;;;;;25.07;100.00;100414.22;5024791;28;45571;-74
2023/10/13 09:23:45;;;;;;;;;10.50;9.25;;;;;25.20;100.00;100410.53;5022317;28;45492;-74
2023/10/13 09:26:12;;;;;;;;;13.75;11.50;;;;;25.33;100.00;100410.84;5011600;28;45712;-74
2023/10/13 09:28:37;;;;;;;;;9.00;7.00;;;;;25.39;100.00;100409.59;5019924;28;46061;-76
2023/10/13 09:31:07;;;;;;;;;9.00;7.75;;;;;25.42;100.00;100408.97;5030442;28;45419;-73
2023/10/13 09:33:35;;;;;;;;;13.75;10.75;;;;;25.42;100.00;100406.16;5031705;28;45523;-76
2023/10/13 09:36:06;;;;;;;;;9.50;9.50;;;;;25.48;100.00;100406.84;5028158;28;45519;-74
2023/10/13 09:38:33;;;;;;;;;11.75;10.00;;;;;25.59;100.00;100399.84;5039203;28;47422;-75
2023/10/13 09:41:17;;;;;;;;;11.50;10.50;;;;;26.02;100.00;100384.47;5030306;28;45666;-76
2023/10/13 09:43:43;;;;;;;;;9.50;9.50;;;;;26.88;100.00;100388.75;5024730;28;45443;-75
2023/10/13 09:46:17;;;;;;;;;8.00;8.00;;;;;27.35;100.00;100379.75;5033444;28;45638;-74
2023/10/13 09:49:04;;;;;;;;;13.75;10.00;;;;;27.77;100.00;100387.63;5034235;28;45582;-75
2023/10/13 09:51:31;;;;;;;;;8.50;8.50;;;;;28.33;100.00;100387.66;5030138;28;45415;-76
2023/10/13 09:54:26;;;;;;;;;11.25;10.50;;;;;28.56;99.72;100385.41;5033633;28;45322;-75
2023/10/13 09:57:10;;;;;;;;;8.25;7.75;;;;;29.18;94.98;100391.53;5033642;28;45388;-75
2023/10/13 09:59:52;;;;;;;;;11.75;11.00;;;;;29.50;92.00;100392.75;5022871;28;45666;-74
2023/10/13 10:02:24;;;;;;;;;14.00;8.75;;;;;29.34;89.58;100398.25;5032958;28;45818;-77
2023/10/13 10:05:12;;;;;;;;;12.25;11.25;;;;;29.16;89.42;100389.06;5026540;28;45613;-76
2023/10/13 10:07:39;;;;;;;;;13.25;10.25;;;;;29.35;87.62;100382.94;5032294;28;45696;-76
2023/10/13 10:10:08;;;;;;;;;13.00;9.50;;;;;29.84;85.08;100381.50;5023619;28;45836;-76
2023/10/13 10:12:36;;;;;;;;;10.00;8.25;;;;;30.53;83.63;100367.72;5023722;28;45849;-73
2023/10/13 10:15:43;;;;;;;;;13.75;9.75;;;;;31.41;82.33;100367.22;5027653;28;45748;-74
2023/10/13 10:18:22;;;;;;;;;8.25;8.25;;;;;32.32;77.44;100354.34;5028601;28;45951;-74
2023/10/13 10:20:51;;;;;;;;;11.25;9.50;;;;;32.62;73.90;100360.38;5028338;28;46825;-73
2023/10/13 10:23:35;;;;;;;;;12.50;12.00;;;;;32.89;72.54;100358.59;5026602;28;45816;-74
2023/10/13 10:26:15;;;;;;;;;15.75;11.50;;;;;33.08;69.82;100348.44;5032595;28;45841;-74
2023/10/13 10:28:44;;;;;;;;;14.75;9.00;;;;;33.47;67.73;100373.25;5027499;28;45843;-73
2023/10/13 10:31:19;;;;;;;;;12.00;8.50;;;;;33.57;66.48;100361.25;5030920;28;47002;-76
2023/10/13 10:33:46;;;;;;;;;10.50;9.00;;;;;33.47;66.37;100359.03;5020592;28;45583;-75
2023/10/13 10:36:14;;;;;;;;;10.25;10.00;;;;;33.45;63.98;100350.88;5026632;28;45451;-75
2023/10/13 10:38:54;;;;;;;;;10.00;9.00;;;;;33.25;62.91;100356.56;5023135;28;45310;-75
2023/10/13 10:41:38;;;;;;;;;8.50;8.00;;;;;33.07;63.43;100349.63;5025769;28;46040;-76
2023/10/13 10:44:08;;;;;;;;;9.50;8.75;;;;;32.87;64.01;100360.97;5021434;28;46184;-76
2023/10/13 10:46:40;;;;;;;;;11.25;10.50;;;;;32.72;64.22;100359.00;5027227;28;45299;-74
2023/10/13 10:49:08;;;;;;;;;13.00;8.75;;;;;32.48;63.99;100372.19;5031445;28;45878;-76
2023/10/13 10:51:43;;;;;;;;;11.25;9.25;;;;;32.21;64.26;100354.88;5025850;28;45733;-73
2023/10/13 10:54:19;;;;;;;;;11.25;9.75;;;;;31.94;64.14;100358.59;5027879;28;45763;-75
2023/10/13 10:56:52;;;;;;;;;11.00;8.75;;;;;31.68;64.31;100345.75;5023972;28;45879;-75
2023/10/13 10:59:24;;;;;;;;;4.00;4.00;;;;;31.28;64.58;100347.44;5025818;28;45390;-71
2023/10/13 11:01:53;;;;;;;;;8.25;7.50;;;;;31.06;65.46;100345.16;5020697;28;45942;-71
2023/10/13 11:07:00;;;;;;;;;10.25;8.50;;;;;30.64;66.14;100343.41;5029757;28;45915;-72
2023/10/13 11:12:24;;;;;;;;;7.00;4.00;;;;;30.16;68.12;100360.00;5024753;28;46045;-70
2023/10/13 11:15:00;;;;;;;;;11.75;10.00;;;;;29.93;68.25;100348.31;5037750;28;45935;-78
2023/10/13 11:18:20;;;;;;;;;10.25;8.75;;;;;29.71;68.42;100346.69;5031018;28;45530;-74
2023/10/13 11:20:16;;;;;;;;;13.75;13.75;;;;;29.48;69.36;100343.44;5023401;28;45444;-75
2023/10/13 11:22:47;;;;;;;;;10.50;9.00;;;;;29.29;71.02;100338.28;5037563;28;46300;-73
2023/10/13 11:25:29;;;;;;;;;9.75;9.75;;;;;29.02;71.06;100346.94;5029302;28;45433;-72
2023/10/13 11:27:58;;;;;;;;;13.75;11.25;;;;;28.85;71.18;100332.97;5029132;28;45701;-73
2023/10/13 11:30:29;;;;;;;;;7.25;7.25;;;;;28.77;72.31;100331.84;5025602;28;45671;-73
2023/10/13 11:33:00;;;;;;;;;11.50;10.00;;;;;28.91;73.27;100323.13;5027746;28;47953;-72
2023/10/13 11:35:29;;;;;;;;;14.50;10.25;;;;;29.09;73.96;100326.66;5029790;28;45419;-72
2023/10/13 11:38:43;;;;;;;;;12.25;10.75;;;;;29.14;74.08;100314.31;5029650;28;45520;-71
2023/10/13 11:40:43;;;;;;;;;11.00;10.00;;;;;29.19;74.24;100314.09;5019845;28;45523;-73
2023/10/13 11:43:15;;;;;;;;;11.50;11.25;;;;;29.09;73.52;100311.69;5027121;28;46116;-70
2023/10/13 11:48:36;;;;;;;;;7.50;7.00;;;;;28.78;75.36;100313.75;5017271;28;45878;-72
2023/10/13 11:51:07;;;;;;;;;10.50;8.75;;;;;28.52;75.90;100299.81;5022123;28;46178;-72
2023/10/13 11:53:34;;;;;;;;;11.50;9.50;;;;;28.36;76.21;100303.19;5026478;28;45717;-72
2023/10/13 11:56:00;;;;;;;;;8.75;8.75;;;;;28.11;76.96;100304.16;5025237;28;45701;-72
2023/10/13 11:58:28;;;;;;;;;10.75;9.50;;;;;27.95;78.02;100309.50;5025650;28;45450;-72
2023/10/13 12:01:07;;;;;;;;;11.00;8.00;;;;;27.78;78.45;100301.94;5021605;28;45847;-74
2023/10/13 12:06:32;;;;;;;;;8.50;8.50;;;;;27.57;79.04;100290.56;5021237;28;45547;-71
2023/10/13 12:11:45;;;;;;;;;5.25;5.25;;;;;27.80;80.29;100279.88;5012903;28;45534;-71
2023/10/13 12:14:21;;;;;;;;;11.50;10.00;;;;;27.85;79.81;100285.34;5020385;28;45856;-72
2023/10/13 12:16:53;;;;;;;;;8.00;8.00;;;;;27.90;80.03;100278.69;5026016;28;45457;-70
2023/10/13 12:19:27;;;;;;;;;10.00;9.75;;;;;27.98;80.69;100272.19;5026098;28;45467;-71
2023/10/13 12:21:57;;;;;;;;;14.25;8.00;;;;;28.06;80.23;100279.00;5029189;28;45462;-72
2023/10/13 12:24:40;;;;;;;;;11.50;8.25;;;;;28.06;79.84;100270.53;5025922;28;45456;-71
2023/10/13 12:27:19;;;;;;;;;7.50;7.50;;;;;28.05;80.15;100268.88;5025753;28;45818;-72
2023/10/13 12:29:52;;;;;;;;;10.50;10.50;;;;;28.15;80.84;100268.50;5018525;28;45667;-71
2023/10/13 12:32:25;;;;;;;;;11.00;8.50;;;;;28.21;80.07;100257.84;5040163;28;45789;-71
2023/10/13 12:53:49;;;;;;;;;9.50;9.50;;;;;28.69;79.09;100214.22;5025471;28;45387;-71
2023/10/13 12:56:18;;;;;;;;;11.00;9.25;;;;;28.69;79.40;100229.16;5035578;28;46032;-71
2023/10/13 12:58:54;;;;;;;;;12.25;11.75;;;;;28.56;79.90;100229.41;5028367;28;45637;-71
2023/10/13 13:01:21;;;;;;;;;12.75;11.25;;;;;28.38;80.13;100220.25;5028203;28;45966;-71
2023/10/13 13:03:50;;;;;;;;;16.67;12.33;;;;;28.13;79.83;100235.00;5016020;28;45955;-72
2023/10/13 13:06:26;;;;;;;;;15.00;15.00;;;;;27.99;80.93;100238.06;5009857;28;45754;-72
2023/10/13 13:08:53;;;;;;;;;20.33;14.00;;;;;27.88;81.88;100224.66;5014683;28;45478;-71
2023/10/13 13:11:18;;;;;;;;;10.67;9.67;;;;;27.91;81.93;100230.44;5026727;28;46408;-71
2023/10/13 13:13:46;;;;;;;;;15.33;12.00;;;;;27.89;82.10;100223.47;5020133;28;45874;-72
2023/10/13 13:16:12;;;;;;;;;11.00;8.00;;;;;27.77;82.27;100224.19;5025320;28;45889;-71
2023/10/13 13:18:37;;;;;;;;;17.50;14.25;;;;;27.70;82.93;100221.09;5026368;28;45720;-70
2023/10/13 13:21:06;;;;;;;;;14.00;9.75;;;;;27.66;83.05;100226.56;5033289;28;45561;-72
2023/10/13 13:23:34;;;;;;;;;11.25;10.00;;;;;27.56;82.87;100208.06;5030304;28;45517;-71
2023/10/13 13:26:00;;;;;;;;;11.75;11.00;;;;;27.48;83.07;100211.72;5030931;28;45526;-73
2023/10/13 13:28:28;;;;;;;;;9.50;8.00;;;;;27.40;83.67;100207.78;5033333;28;45795;-72
2023/10/13 13:30:54;;;;;;;;;8.00;6.75;;;;;27.33;83.90;100198.19;5034906;28;45404;-73
2023/10/13 13:33:23;;;;;;;;;14.00;8.50;;;;;27.24;84.18;100199.00;5031631;28;45686;-71
2023/10/13 13:35:49;;;;;;;;;12.50;9.25;;;;;27.13;84.29;100200.53;5033773;28;46853;-71
2023/10/13 13:38:22;;;;;;;;;10.25;8.00;;;;;26.96;84.39;100187.28;5032877;28;45385;-73
2023/10/13 13:40:53;;;;;;;;;4.50;2.00;;;;;26.93;85.11;100191.63;5029706;28;45464;-72
2023/10/13 13:43:38;;;;;;;;;13.75;8.50;;;;;26.88;85.77;100200.22;4999085;28;45884;-72
2023/10/13 13:46:10;;;;;;;;;8.00;6.50;;;;;26.75;86.31;100198.41;5021307;28;45589;-72
2023/10/13 13:48:37;;;;;;;;;11.50;7.00;;;;;26.67;86.69;100182.38;5032964;28;45816;-71
2023/10/13 13:51:14;;;;;;;;;11.25;10.25;;;;;26.54;87.22;100179.38;5043093;28;45416;-72
2023/10/13 13:53:47;;;;;;;;;8.00;7.75;;;;;26.43;87.60;100186.47;5026648;28;45468;-73
2023/10/13 13:56:16;;;;;;;;;12.75;10.25;;;;;26.34;88.30;100186.47;5032225;28;46150;-71
2023/10/13 13:58:42;;;;;;;;;9.25;9.25;;;;;26.25;89.07;100183.63;5027295;28;45396;-72
2023/10/13 14:01:44;;;;;;;;;11.50;9.25;;;;;26.20;89.58;100191.44;5033300;28;45700;-74
2023/10/13 14:04:02;;;;;;;;;11.75;10.75;;;;;26.14;89.56;100181.47;5022264;28;45887;-73
2023/10/13 14:06:28;;;;;;;;;13.75;11.50;;;;;26.06;89.81;100171.88;5026259;28;45519;-72
2023/10/13 14:08:56;;;;;;;;;14.00;8.75;;;;;26.01;90.11;100167.22;5034071;28;45663;-74
2023/10/13 14:14:13;;;;;;;;;13.50;8.25;;;;;25.86;91.01;100159.25;5030959;28;45372;-73
2023/10/13 14:16:49;;;;;;;;;11.00;9.25;;;;;25.90;91.51;100166.69;5024004;28;45788;-74
2023/10/13 14:19:19;;;;;;;;;10.00;8.00;;;;;25.83;91.72;100162.72;5018811;28;45404;-72
2023/10/13 14:21:53;;;;;;;;;16.00;10.25;;;;;25.76;92.41;100159.53;5016846;28;45541;-74
2023/10/13 14:24:27;;;;;;;;;11.00;9.75;;;;;25.68;92.72;100164.00;5029651;28;45568;-78
2023/10/13 14:26:56;;;;;;;;;17.00;11.50;;;;;25.61;93.20;100160.81;5024897;28;46111;-70
2023/10/13 14:29:26;;;;;;;;;23.00;18.67;;;;;25.59;94.34;100154.72;5034634;28;45545;-73
2023/10/13 14:31:52;;;;;;;;;12.25;10.50;;;;;25.51;94.42;100156.31;5025841;28;45756;-73
2023/10/13 14:34:17;;;;;;;;;12.75;10.75;;;;;25.44;95.30;100150.34;5026528;28;45830;-74
2023/10/13 14:36:48;;;;;;;;;9.75;8.00;;;;;25.41;95.77;100154.63;5031469;28;45689;-73
2023/10/13 14:39:13;;;;;;;;;16.25;11.50;;;;;25.37;96.41;100159.22;5026315;28;46979;-72
2023/10/13 14:41:39;;;;;;;;;12.33;11.00;;;;;25.31;96.83;100146.50;5030075;28;45606;-74
2023/10/13 14:44:06;;;;;;;;;8.67;8.67;;;;;25.26;97.34;100147.44;5043637;28;46113;-73
2023/10/13 14:46:35;;;;;;;;;14.00;9.67;;;;;25.19;98.14;100142.28;5030982;28;46089;-72
2023/10/13 14:49:02;;;;;;;;;11.67;9.00;;;;;25.14;98.28;100153.63;5021074;28;45464;-72
2023/10/13 14:51:28;;;;;;;;;10.67;9.67;;;;;25.10;98.81;100152.63;5030758;28;45728;-74
2023/10/13 14:53:59;;;;;;;;;14.33;9.67;;;;;25.09;99.40;100148.19;5022570;28;45900;-73
2023/10/13 14:56:26;;;;;;;;;16.67;11.67;;;;;25.02;99.28;100154.22;5025790;28;45847;-73
2023/10/13 14:58:52;;;;;;;;;11.33;11.33;;;;;25.00;100.00;100150.94;5026381;28;45819;-74